sensor_id;sensor_type;location;lat;lon;timestamp;temperature;humidity
66962;HTU21D;53897;51.126;5.868;2023-12-28T00:00:28;22.73;41.75
66962;HTU21D;53897;51.126;5.868;2023-12-28T00:02:53;22.72;41.74
66962;HTU21D;53897;51.126;5.868;2023-12-28T00:05:19;22.72;41.71
66962;HTU21D;53897;51.126;5.868;2023-12-28T00:07:45;22.69;41.71
66962;HTU21D;53897;51.126;5.868;2023-12-28T00:10:10;22.68;41.70
66962;HTU21D;53897;51.126;5.868;2023-12-28T00:12:36;22.65;41.68
66962;HTU21D;53897;51.126;5.868;2023-12-28T00:15:02;22.64;41.66
66962;HTU21D;53897;51.126;5.868;2023-12-28T00:17:28;22.64;41.67
66962;HTU21D;53897;51.126;5.868;2023-12-28T00:19:53;22.62;41.67
66962;HTU21D;53897;51.126;5.868;2023-12-28T00:22:20;22.60;41.64
66962;HTU21D;53897;51.126;5.868;2023-12-28T00:24:45;22.57;41.66
66962;HTU21D;53897;51.126;5.868;2023-12-28T00:27:11;22.56;41.66
66962;HTU21D;53897;51.126;5.868;2023-12-28T00:29:36;22.55;41.66
66962;HTU21D;53897;51.126;5.868;2023-12-28T00:32:07;22.54;41.65
66962;HTU21D;53897;51.126;5.868;2023-12-28T00:34:33;22.53;41.64
66962;HTU21D;53897;51.126;5.868;2023-12-28T00:36:58;22.51;41.63
66962;HTU21D;53897;51.126;5.868;2023-12-28T00:39:24;22.48;41.63
66962;HTU21D;53897;51.126;5.868;2023-12-28T00:41:50;22.47;41.61
66962;HTU21D;53897;51.126;5.868;2023-12-28T00:44:15;22.46;41.62
66962;HTU21D;53897;51.126;5.868;2023-12-28T00:46:42;22.44;41.62
66962;HTU21D;53897;51.126;5.868;2023-12-28T00:49:07;22.42;41.63
66962;HTU21D;53897;51.126;5.868;2023-12-28T00:51:34;22.40;41.64
66962;HTU21D;53897;51.126;5.868;2023-12-28T00:53:59;22.40;41.65
66962;HTU21D;53897;51.126;5.868;2023-12-28T00:56:25;22.39;41.62
66962;HTU21D;53897;51.126;5.868;2023-12-28T00:58:51;22.36;41.62
66962;HTU21D;53897;51.126;5.868;2023-12-28T01:01:18;22.34;41.65
66962;HTU21D;53897;51.126;5.868;2023-12-28T01:03:43;22.34;41.65
66962;HTU21D;53897;51.126;5.868;2023-12-28T01:06:09;22.32;41.68
66962;HTU21D;53897;51.126;5.868;2023-12-28T01:08:35;22.28;41.65
66962;HTU21D;53897;51.126;5.868;2023-12-28T01:11:01;22.27;41.65
66962;HTU21D;53897;51.126;5.868;2023-12-28T01:13:27;22.28;41.65
66962;HTU21D;53897;51.126;5.868;2023-12-28T01:15:53;22.27;41.64
66962;HTU21D;53897;51.126;5.868;2023-12-28T01:18:19;22.25;41.65
66962;HTU21D;53897;51.126;5.868;2023-12-28T01:20:45;22.23;41.66
66962;HTU21D;53897;51.126;5.868;2023-12-28T01:23:11;22.22;41.64
66962;HTU21D;53897;51.126;5.868;2023-12-28T01:25:37;22.20;41.65
66962;HTU21D;53897;51.126;5.868;2023-12-28T01:28:03;22.19;41.67
66962;HTU21D;53897;51.126;5.868;2023-12-28T01:30:30;22.17;41.68
66962;HTU21D;53897;51.126;5.868;2023-12-28T01:32:56;22.16;41.70
66962;HTU21D;53897;51.126;5.868;2023-12-28T01:35:21;22.13;41.71
66962;HTU21D;53897;51.126;5.868;2023-12-28T01:37:47;22.13;41.73
66962;HTU21D;53897;51.126;5.868;2023-12-28T01:40:13;22.11;41.73
66962;HTU21D;53897;51.126;5.868;2023-12-28T01:42:38;22.10;41.73
66962;HTU21D;53897;51.126;5.868;2023-12-28T01:45:05;22.09;41.75
66962;HTU21D;53897;51.126;5.868;2023-12-28T01:47:31;22.07;41.78
66962;HTU21D;53897;51.126;5.868;2023-12-28T01:49:59;22.06;41.78
66962;HTU21D;53897;51.126;5.868;2023-12-28T01:52:27;22.05;41.79
66962;HTU21D;53897;51.126;5.868;2023-12-28T01:54:53;22.04;41.81
66962;HTU21D;53897;51.126;5.868;2023-12-28T01:57:20;22.03;41.81
66962;HTU21D;53897;51.126;5.868;2023-12-28T01:59:46;22.01;41.81
66962;HTU21D;53897;51.126;5.868;2023-12-28T02:02:13;21.99;41.81
66962;HTU21D;53897;51.126;5.868;2023-12-28T02:04:39;21.97;41.82
66962;HTU21D;53897;51.126;5.868;2023-12-28T02:07:05;21.97;41.84
66962;HTU21D;53897;51.126;5.868;2023-12-28T02:09:31;21.96;41.86
66962;HTU21D;53897;51.126;5.868;2023-12-28T02:11:56;21.94;41.85
66962;HTU21D;53897;51.126;5.868;2023-12-28T02:14:25;21.93;41.87
66962;HTU21D;53897;51.126;5.868;2023-12-28T02:17:05;21.91;41.89
66962;HTU21D;53897;51.126;5.868;2023-12-28T02:19:51;21.91;41.90
66962;HTU21D;53897;51.126;5.868;2023-12-28T02:22:18;21.89;41.91
66962;HTU21D;53897;51.126;5.868;2023-12-28T02:25:09;21.89;41.92
66962;HTU21D;53897;51.126;5.868;2023-12-28T02:30:07;21.84;41.97
66962;HTU21D;53897;51.126;5.868;2023-12-28T02:35:39;21.82;42.00
66962;HTU21D;53897;51.126;5.868;2023-12-28T02:38:09;21.82;42.01
66962;HTU21D;53897;51.126;5.868;2023-12-28T02:40:41;21.81;42.01
66962;HTU21D;53897;51.126;5.868;2023-12-28T02:43:10;21.79;42.02
66962;HTU21D;53897;51.126;5.868;2023-12-28T02:45:37;21.78;42.02
66962;HTU21D;53897;51.126;5.868;2023-12-28T02:48:04;21.77;42.03
66962;HTU21D;53897;51.126;5.868;2023-12-28T02:50:35;21.76;42.04
66962;HTU21D;53897;51.126;5.868;2023-12-28T02:53:01;21.75;42.04
66962;HTU21D;53897;51.126;5.868;2023-12-28T02:55:27;21.74;42.05
66962;HTU21D;53897;51.126;5.868;2023-12-28T02:57:55;21.73;42.08
66962;HTU21D;53897;51.126;5.868;2023-12-28T03:00:21;21.73;42.08
66962;HTU21D;53897;51.126;5.868;2023-12-28T03:02:47;21.70;42.10
66962;HTU21D;53897;51.126;5.868;2023-12-28T03:05:13;21.69;42.10
66962;HTU21D;53897;51.126;5.868;2023-12-28T03:07:39;21.68;42.14
66962;HTU21D;53897;51.126;5.868;2023-12-28T03:10:07;21.68;42.14
66962;HTU21D;53897;51.126;5.868;2023-12-28T03:12:33;21.67;42.17
66962;HTU21D;53897;51.126;5.868;2023-12-28T03:14:58;21.66;42.17
66962;HTU21D;53897;51.126;5.868;2023-12-28T03:17:24;21.65;42.16
66962;HTU21D;53897;51.126;5.868;2023-12-28T03:19:50;21.64;42.16
66962;HTU21D;53897;51.126;5.868;2023-12-28T03:22:17;21.64;42.12
66962;HTU21D;53897;51.126;5.868;2023-12-28T03:24:43;21.63;42.12
66962;HTU21D;53897;51.126;5.868;2023-12-28T03:27:09;21.61;42.16
66962;HTU21D;53897;51.126;5.868;2023-12-28T03:29:34;21.59;42.15
66962;HTU21D;53897;51.126;5.868;2023-12-28T03:32:00;21.59;42.17
66962;HTU21D;53897;51.126;5.868;2023-12-28T03:34:27;21.58;42.18
66962;HTU21D;53897;51.126;5.868;2023-12-28T03:36:54;21.57;42.17
66962;HTU21D;53897;51.126;5.868;2023-12-28T03:39:20;21.57;42.19
66962;HTU21D;53897;51.126;5.868;2023-12-28T03:41:47;21.53;42.22
66962;HTU21D;53897;51.126;5.868;2023-12-28T03:44:13;21.51;42.23
66962;HTU21D;53897;51.126;5.868;2023-12-28T03:46:38;21.53;42.26
66962;HTU21D;53897;51.126;5.868;2023-12-28T03:49:04;21.51;42.25
66962;HTU21D;53897;51.126;5.868;2023-12-28T03:51:30;21.50;42.29
66962;HTU21D;53897;51.126;5.868;2023-12-28T03:53:55;21.51;42.28
66962;HTU21D;53897;51.126;5.868;2023-12-28T03:56:26;21.48;42.28
66962;HTU21D;53897;51.126;5.868;2023-12-28T03:58:54;21.48;42.33
66962;HTU21D;53897;51.126;5.868;2023-12-28T04:01:21;21.47;42.29
66962;HTU21D;53897;51.126;5.868;2023-12-28T04:03:49;21.47;42.35
66962;HTU21D;53897;51.126;5.868;2023-12-28T04:06:15;21.46;42.36
66962;HTU21D;53897;51.126;5.868;2023-12-28T04:08:41;21.47;42.36
66962;HTU21D;53897;51.126;5.868;2023-12-28T04:11:08;21.44;42.36
66962;HTU21D;53897;51.126;5.868;2023-12-28T04:13:35;21.44;42.36
66962;HTU21D;53897;51.126;5.868;2023-12-28T04:16:00;21.43;42.38
66962;HTU21D;53897;51.126;5.868;2023-12-28T04:18:26;21.40;42.41
66962;HTU21D;53897;51.126;5.868;2023-12-28T04:20:52;21.40;42.42
66962;HTU21D;53897;51.126;5.868;2023-12-28T04:23:17;21.40;42.39
66962;HTU21D;53897;51.126;5.868;2023-12-28T04:25:44;21.39;42.41
66962;HTU21D;53897;51.126;5.868;2023-12-28T04:28:09;21.38;42.44
66962;HTU21D;53897;51.126;5.868;2023-12-28T04:30:36;21.38;42.48
66962;HTU21D;53897;51.126;5.868;2023-12-28T04:33:03;21.36;42.46
66962;HTU21D;53897;51.126;5.868;2023-12-28T04:35:29;21.36;42.45
66962;HTU21D;53897;51.126;5.868;2023-12-28T04:37:54;21.34;42.47
66962;HTU21D;53897;51.126;5.868;2023-12-28T04:40:21;21.34;42.48
66962;HTU21D;53897;51.126;5.868;2023-12-28T04:42:47;21.35;42.52
66962;HTU21D;53897;51.126;5.868;2023-12-28T04:45:13;21.34;42.50
66962;HTU21D;53897;51.126;5.868;2023-12-28T04:47:39;21.32;42.53
66962;HTU21D;53897;51.126;5.868;2023-12-28T04:50:06;21.31;42.54
66962;HTU21D;53897;51.126;5.868;2023-12-28T04:52:33;21.31;42.54
66962;HTU21D;53897;51.126;5.868;2023-12-28T04:54:59;21.31;42.54
66962;HTU21D;53897;51.126;5.868;2023-12-28T04:57:25;21.30;42.55
66962;HTU21D;53897;51.126;5.868;2023-12-28T04:59:52;21.28;42.58
66962;HTU21D;53897;51.126;5.868;2023-12-28T05:02:18;21.29;42.54
66962;HTU21D;53897;51.126;5.868;2023-12-28T05:04:44;21.28;42.53
66962;HTU21D;53897;51.126;5.868;2023-12-28T05:07:09;21.27;42.55
66962;HTU21D;53897;51.126;5.868;2023-12-28T05:09:36;21.27;42.55
66962;HTU21D;53897;51.126;5.868;2023-12-28T05:12:02;21.25;42.57
66962;HTU21D;53897;51.126;5.868;2023-12-28T05:14:28;21.24;42.60
66962;HTU21D;53897;51.126;5.868;2023-12-28T05:16:53;21.25;42.54
66962;HTU21D;53897;51.126;5.868;2023-12-28T05:19:19;21.23;42.58
66962;HTU21D;53897;51.126;5.868;2023-12-28T05:21:45;21.22;42.58
66962;HTU21D;53897;51.126;5.868;2023-12-28T05:24:11;21.23;42.54
66962;HTU21D;53897;51.126;5.868;2023-12-28T05:26:37;21.21;42.55
66962;HTU21D;53897;51.126;5.868;2023-12-28T05:29:03;21.21;42.55
66962;HTU21D;53897;51.126;5.868;2023-12-28T05:31:28;21.20;42.58
66962;HTU21D;53897;51.126;5.868;2023-12-28T05:33:54;21.19;42.55
66962;HTU21D;53897;51.126;5.868;2023-12-28T05:36:20;21.20;42.56
66962;HTU21D;53897;51.126;5.868;2023-12-28T05:38:45;21.18;42.56
66962;HTU21D;53897;51.126;5.868;2023-12-28T05:41:11;21.18;42.57
66962;HTU21D;53897;51.126;5.868;2023-12-28T05:43:38;21.17;42.56
66962;HTU21D;53897;51.126;5.868;2023-12-28T05:46:04;21.17;42.57
66962;HTU21D;53897;51.126;5.868;2023-12-28T05:48:30;21.16;42.58
66962;HTU21D;53897;51.126;5.868;2023-12-28T05:51:00;21.15;42.55
66962;HTU21D;53897;51.126;5.868;2023-12-28T05:53:26;21.15;42.56
66962;HTU21D;53897;51.126;5.868;2023-12-28T05:55:53;21.14;42.55
66962;HTU21D;53897;51.126;5.868;2023-12-28T05:58:19;21.11;42.57
66962;HTU21D;53897;51.126;5.868;2023-12-28T06:00:45;21.10;42.63
66962;HTU21D;53897;51.126;5.868;2023-12-28T06:03:14;21.11;42.68
66962;HTU21D;53897;51.126;5.868;2023-12-28T06:05:39;21.10;42.74
66962;HTU21D;53897;51.126;5.868;2023-12-28T06:08:05;21.10;42.79
66962;HTU21D;53897;51.126;5.868;2023-12-28T06:10:31;21.11;42.84
66962;HTU21D;53897;51.126;5.868;2023-12-28T06:12:56;21.11;42.91
66962;HTU21D;53897;51.126;5.868;2023-12-28T06:15:22;21.11;42.98
66962;HTU21D;53897;51.126;5.868;2023-12-28T06:17:48;21.14;43.03
66962;HTU21D;53897;51.126;5.868;2023-12-28T06:20:13;21.16;43.10
66962;HTU21D;53897;51.126;5.868;2023-12-28T06:22:39;21.18;43.16
66962;HTU21D;53897;51.126;5.868;2023-12-28T06:25:05;21.19;43.19
66962;HTU21D;53897;51.126;5.868;2023-12-28T06:27:32;21.21;43.20
66962;HTU21D;53897;51.126;5.868;2023-12-28T06:29:58;21.22;43.20
66962;HTU21D;53897;51.126;5.868;2023-12-28T06:32:24;21.25;43.27
66962;HTU21D;53897;51.126;5.868;2023-12-28T06:34:50;21.27;43.29
66962;HTU21D;53897;51.126;5.868;2023-12-28T06:37:15;21.29;43.34
66962;HTU21D;53897;51.126;5.868;2023-12-28T06:39:41;21.31;43.37
66962;HTU21D;53897;51.126;5.868;2023-12-28T06:42:07;21.33;43.36
66962;HTU21D;53897;51.126;5.868;2023-12-28T06:44:33;21.33;43.40
66962;HTU21D;53897;51.126;5.868;2023-12-28T06:46:59;21.35;43.42
66962;HTU21D;53897;51.126;5.868;2023-12-28T06:49:25;21.36;43.45
66962;HTU21D;53897;51.126;5.868;2023-12-28T06:51:51;21.38;43.50
66962;HTU21D;53897;51.126;5.868;2023-12-28T06:54:17;21.40;43.51
66962;HTU21D;53897;51.126;5.868;2023-12-28T06:56:42;21.43;43.52
66962;HTU21D;53897;51.126;5.868;2023-12-28T06:59:09;21.46;43.54
66962;HTU21D;53897;51.126;5.868;2023-12-28T07:01:38;21.47;43.55
66962;HTU21D;53897;51.126;5.868;2023-12-28T07:04:04;21.49;43.52
66962;HTU21D;53897;51.126;5.868;2023-12-28T07:06:30;21.51;43.54
66962;HTU21D;53897;51.126;5.868;2023-12-28T07:08:56;21.54;43.55
66962;HTU21D;53897;51.126;5.868;2023-12-28T07:11:21;21.57;43.55
66962;HTU21D;53897;51.126;5.868;2023-12-28T07:13:48;21.58;43.54
66962;HTU21D;53897;51.126;5.868;2023-12-28T07:16:14;21.60;43.51
66962;HTU21D;53897;51.126;5.868;2023-12-28T07:18:41;21.62;43.57
66962;HTU21D;53897;51.126;5.868;2023-12-28T07:21:07;21.64;43.55
66962;HTU21D;53897;51.126;5.868;2023-12-28T07:23:37;21.67;43.49
66962;HTU21D;53897;51.126;5.868;2023-12-28T07:26:04;21.70;43.55
66962;HTU21D;53897;51.126;5.868;2023-12-28T07:28:30;21.73;43.58
66962;HTU21D;53897;51.126;5.868;2023-12-28T07:30:56;21.74;43.61
66962;HTU21D;53897;51.126;5.868;2023-12-28T07:33:21;21.78;43.66
66962;HTU21D;53897;51.126;5.868;2023-12-28T07:35:47;21.80;43.72
66962;HTU21D;53897;51.126;5.868;2023-12-28T07:38:13;21.82;43.80
66962;HTU21D;53897;51.126;5.868;2023-12-28T07:40:39;21.87;43.91
66962;HTU21D;53897;51.126;5.868;2023-12-28T07:43:05;21.89;43.97
66962;HTU21D;53897;51.126;5.868;2023-12-28T07:45:31;21.93;44.01
66962;HTU21D;53897;51.126;5.868;2023-12-28T07:47:59;21.93;44.03
66962;HTU21D;53897;51.126;5.868;2023-12-28T07:50:25;21.98;44.05
66962;HTU21D;53897;51.126;5.868;2023-12-28T07:52:51;21.98;44.02
66962;HTU21D;53897;51.126;5.868;2023-12-28T07:55:16;22.04;43.94
66962;HTU21D;53897;51.126;5.868;2023-12-28T07:57:42;22.04;43.92
66962;HTU21D;53897;51.126;5.868;2023-12-28T08:00:08;22.06;43.93
66962;HTU21D;53897;51.126;5.868;2023-12-28T08:02:34;22.10;43.93
66962;HTU21D;53897;51.126;5.868;2023-12-28T08:05:00;22.12;43.99
66962;HTU21D;53897;51.126;5.868;2023-12-28T08:07:26;22.13;43.97
66962;HTU21D;53897;51.126;5.868;2023-12-28T08:09:51;22.17;43.98
66962;HTU21D;53897;51.126;5.868;2023-12-28T08:12:17;22.18;43.96
66962;HTU21D;53897;51.126;5.868;2023-12-28T08:14:43;22.21;43.98
66962;HTU21D;53897;51.126;5.868;2023-12-28T08:17:09;22.23;44.02
66962;HTU21D;53897;51.126;5.868;2023-12-28T08:19:35;22.25;44.02
66962;HTU21D;53897;51.126;5.868;2023-12-28T08:22:01;22.25;43.93
66962;HTU21D;53897;51.126;5.868;2023-12-28T08:24:28;22.27;43.83
66962;HTU21D;53897;51.126;5.868;2023-12-28T08:26:53;22.29;43.72
66962;HTU21D;53897;51.126;5.868;2023-12-28T08:29:20;22.29;43.63
66962;HTU21D;53897;51.126;5.868;2023-12-28T08:31:45;22.31;43.61
66962;HTU21D;53897;51.126;5.868;2023-12-28T08:34:11;22.33;43.59
66962;HTU21D;53897;51.126;5.868;2023-12-28T08:36:37;22.33;43.53
66962;HTU21D;53897;51.126;5.868;2023-12-28T08:39:02;22.33;43.35
66962;HTU21D;53897;51.126;5.868;2023-12-28T08:41:29;22.34;43.22
66962;HTU21D;53897;51.126;5.868;2023-12-28T08:43:55;22.34;43.22
66962;HTU21D;53897;51.126;5.868;2023-12-28T08:46:23;22.33;43.24
66962;HTU21D;53897;51.126;5.868;2023-12-28T08:48:52;22.33;43.19
66962;HTU21D;53897;51.126;5.868;2023-12-28T08:51:18;22.31;43.14
66962;HTU21D;53897;51.126;5.868;2023-12-28T08:53:44;22.33;43.14
66962;HTU21D;53897;51.126;5.868;2023-12-28T08:58:39;22.35;43.13
66962;HTU21D;53897;51.126;5.868;2023-12-28T09:01:04;22.35;43.14
66962;HTU21D;53897;51.126;5.868;2023-12-28T09:03:30;22.37;43.17
66962;HTU21D;53897;51.126;5.868;2023-12-28T09:05:56;22.37;43.15
66962;HTU21D;53897;51.126;5.868;2023-12-28T09:08:21;22.39;43.14
66962;HTU21D;53897;51.126;5.868;2023-12-28T09:10:47;22.40;43.13
66962;HTU21D;53897;51.126;5.868;2023-12-28T09:13:16;22.41;43.10
66962;HTU21D;53897;51.126;5.868;2023-12-28T09:15:45;22.42;43.08
66962;HTU21D;53897;51.126;5.868;2023-12-28T09:18:11;22.42;43.03
66962;HTU21D;53897;51.126;5.868;2023-12-28T09:20:37;22.44;42.97
66962;HTU21D;53897;51.126;5.868;2023-12-28T09:23:02;22.47;42.92
66962;HTU21D;53897;51.126;5.868;2023-12-28T09:25:28;22.48;42.84
66962;HTU21D;53897;51.126;5.868;2023-12-28T09:27:54;22.48;42.89
66962;HTU21D;53897;51.126;5.868;2023-12-28T09:30:19;22.50;42.85
66962;HTU21D;53897;51.126;5.868;2023-12-28T09:32:45;22.51;42.85
66962;HTU21D;53897;51.126;5.868;2023-12-28T09:35:11;22.51;42.90
66962;HTU21D;53897;51.126;5.868;2023-12-28T09:37:36;22.51;42.90
66962;HTU21D;53897;51.126;5.868;2023-12-28T09:40:02;22.53;42.80
66962;HTU21D;53897;51.126;5.868;2023-12-28T09:45:35;22.55;42.63
66962;HTU21D;53897;51.126;5.868;2023-12-28T09:48:01;22.56;42.55
66962;HTU21D;53897;51.126;5.868;2023-12-28T09:50:28;22.57;42.53
66962;HTU21D;53897;51.126;5.868;2023-12-28T09:52:54;22.58;42.53
66962;HTU21D;53897;51.126;5.868;2023-12-28T09:55:20;22.60;42.48
66962;HTU21D;53897;51.126;5.868;2023-12-28T09:57:46;22.61;42.45
66962;HTU21D;53897;51.126;5.868;2023-12-28T10:00:12;22.62;42.39
66962;HTU21D;53897;51.126;5.868;2023-12-28T10:02:44;22.65;42.32
66962;HTU21D;53897;51.126;5.868;2023-12-28T10:05:16;22.65;42.22
66962;HTU21D;53897;51.126;5.868;2023-12-28T10:07:43;22.65;42.10
66962;HTU21D;53897;51.126;5.868;2023-12-28T10:10:09;22.66;42.00
66962;HTU21D;53897;51.126;5.868;2023-12-28T10:12:36;22.65;41.97
66962;HTU21D;53897;51.126;5.868;2023-12-28T10:15:03;22.65;41.87
66962;HTU21D;53897;51.126;5.868;2023-12-28T10:17:29;22.67;41.80
66962;HTU21D;53897;51.126;5.868;2023-12-28T10:19:55;22.64;41.76
66962;HTU21D;53897;51.126;5.868;2023-12-28T10:22:27;22.65;41.85
66962;HTU21D;53897;51.126;5.868;2023-12-28T10:24:54;22.65;41.97
66962;HTU21D;53897;51.126;5.868;2023-12-28T10:27:20;22.64;42.04
66962;HTU21D;53897;51.126;5.868;2023-12-28T10:29:46;22.64;42.12
66962;HTU21D;53897;51.126;5.868;2023-12-28T10:32:12;22.64;42.13
66962;HTU21D;53897;51.126;5.868;2023-12-28T10:34:38;22.65;42.20
66962;HTU21D;53897;51.126;5.868;2023-12-28T10:37:05;22.65;42.23
66962;HTU21D;53897;51.126;5.868;2023-12-28T10:39:32;22.65;42.29
66962;HTU21D;53897;51.126;5.868;2023-12-28T10:42:04;22.65;42.29
66962;HTU21D;53897;51.126;5.868;2023-12-28T10:44:35;22.65;42.34
66962;HTU21D;53897;51.126;5.868;2023-12-28T10:47:08;22.67;42.40
66962;HTU21D;53897;51.126;5.868;2023-12-28T10:49:41;22.67;42.53
66962;HTU21D;53897;51.126;5.868;2023-12-28T10:52:13;22.68;42.89
66962;HTU21D;53897;51.126;5.868;2023-12-28T10:54:49;22.69;43.06
66962;HTU21D;53897;51.126;5.868;2023-12-28T10:57:40;22.71;43.25
66962;HTU21D;53897;51.126;5.868;2023-12-28T11:00:16;22.71;43.46
66962;HTU21D;53897;51.126;5.868;2023-12-28T11:02:45;22.72;43.58
66962;HTU21D;53897;51.126;5.868;2023-12-28T11:05:15;22.71;43.61
66962;HTU21D;53897;51.126;5.868;2023-12-28T11:07:43;22.71;43.56
66962;HTU21D;53897;51.126;5.868;2023-12-28T11:10:09;22.72;43.48
66962;HTU21D;53897;51.126;5.868;2023-12-28T11:12:37;22.72;43.49
66962;HTU21D;53897;51.126;5.868;2023-12-28T11:15:05;22.72;43.46
66962;HTU21D;53897;51.126;5.868;2023-12-28T11:17:31;22.71;43.42
66962;HTU21D;53897;51.126;5.868;2023-12-28T11:19:58;22.72;43.42
66962;HTU21D;53897;51.126;5.868;2023-12-28T11:22:26;22.72;43.37
66962;HTU21D;53897;51.126;5.868;2023-12-28T11:24:53;22.73;43.40
66962;HTU21D;53897;51.126;5.868;2023-12-28T11:27:19;22.73;43.45
66962;HTU21D;53897;51.126;5.868;2023-12-28T11:29:47;22.73;43.56
66962;HTU21D;53897;51.126;5.868;2023-12-28T11:32:13;22.72;43.57
66962;HTU21D;53897;51.126;5.868;2023-12-28T11:34:39;22.75;43.42
66962;HTU21D;53897;51.126;5.868;2023-12-28T11:37:12;22.75;43.29
66962;HTU21D;53897;51.126;5.868;2023-12-28T11:39:41;22.75;43.20
66962;HTU21D;53897;51.126;5.868;2023-12-28T11:42:10;22.76;43.16
66962;HTU21D;53897;51.126;5.868;2023-12-28T11:44:39;22.76;43.19
66962;HTU21D;53897;51.126;5.868;2023-12-28T11:47:15;22.75;43.23
66962;HTU21D;53897;51.126;5.868;2023-12-28T11:49:41;22.75;43.21
66962;HTU21D;53897;51.126;5.868;2023-12-28T11:52:09;22.75;43.19
66962;HTU21D;53897;51.126;5.868;2023-12-28T11:54:36;22.73;43.54
66962;HTU21D;53897;51.126;5.868;2023-12-28T11:57:02;22.73;44.00
66962;HTU21D;53897;51.126;5.868;2023-12-28T11:59:28;22.73;44.37
66962;HTU21D;53897;51.126;5.868;2023-12-28T12:01:54;22.73;44.57
66962;HTU21D;53897;51.126;5.868;2023-12-28T12:04:21;22.73;44.68
66962;HTU21D;53897;51.126;5.868;2023-12-28T12:06:47;22.76;44.69
66962;HTU21D;53897;51.126;5.868;2023-12-28T12:09:14;22.77;44.70
66962;HTU21D;53897;51.126;5.868;2023-12-28T12:11:40;22.77;44.58
66962;HTU21D;53897;51.126;5.868;2023-12-28T12:14:09;22.78;44.48
66962;HTU21D;53897;51.126;5.868;2023-12-28T12:16:37;22.76;44.39
66962;HTU21D;53897;51.126;5.868;2023-12-28T12:19:04;22.78;44.32
66962;HTU21D;53897;51.126;5.868;2023-12-28T12:21:30;22.77;44.29
66962;HTU21D;53897;51.126;5.868;2023-12-28T12:23:56;22.77;44.21
66962;HTU21D;53897;51.126;5.868;2023-12-28T12:26:22;22.77;44.13
66962;HTU21D;53897;51.126;5.868;2023-12-28T12:28:47;22.76;44.09
66962;HTU21D;53897;51.126;5.868;2023-12-28T12:31:14;22.75;44.02
66962;HTU21D;53897;51.126;5.868;2023-12-28T12:33:41;22.75;43.96
66962;HTU21D;53897;51.126;5.868;2023-12-28T12:36:07;22.73;44.01
66962;HTU21D;53897;51.126;5.868;2023-12-28T12:38:34;22.73;44.15
66962;HTU21D;53897;51.126;5.868;2023-12-28T12:41:00;22.73;44.19
66962;HTU21D;53897;51.126;5.868;2023-12-28T12:43:26;22.73;44.15
66962;HTU21D;53897;51.126;5.868;2023-12-28T12:45:53;22.73;44.10
66962;HTU21D;53897;51.126;5.868;2023-12-28T12:48:19;22.76;43.98
66962;HTU21D;53897;51.126;5.868;2023-12-28T12:50:44;22.75;43.87
66962;HTU21D;53897;51.126;5.868;2023-12-28T12:53:10;22.75;43.80
66962;HTU21D;53897;51.126;5.868;2023-12-28T12:55:37;22.75;43.73
66962;HTU21D;53897;51.126;5.868;2023-12-28T12:58:09;22.76;43.63
66962;HTU21D;53897;51.126;5.868;2023-12-28T13:00:35;22.76;43.54
66962;HTU21D;53897;51.126;5.868;2023-12-28T13:03:01;22.73;43.45
66962;HTU21D;53897;51.126;5.868;2023-12-28T13:05:28;22.73;43.46
66962;HTU21D;53897;51.126;5.868;2023-12-28T13:07:54;22.72;43.55
66962;HTU21D;53897;51.126;5.868;2023-12-28T13:10:20;22.75;43.60
66962;HTU21D;53897;51.126;5.868;2023-12-28T13:12:46;22.73;43.07
66962;HTU21D;53897;51.126;5.868;2023-12-28T13:15:12;22.71;42.53
66962;HTU21D;53897;51.126;5.868;2023-12-28T13:17:38;22.71;42.44
66962;HTU21D;53897;51.126;5.868;2023-12-28T13:20:04;22.69;42.55
66962;HTU21D;53897;51.126;5.868;2023-12-28T13:22:32;22.70;42.64
66962;HTU21D;53897;51.126;5.868;2023-12-28T13:24:58;22.70;42.65
66962;HTU21D;53897;51.126;5.868;2023-12-28T13:27:24;22.69;42.65
66962;HTU21D;53897;51.126;5.868;2023-12-28T13:29:49;22.68;42.67
66962;HTU21D;53897;51.126;5.868;2023-12-28T13:32:15;22.67;42.70
66962;HTU21D;53897;51.126;5.868;2023-12-28T13:34:41;22.66;42.73
66962;HTU21D;53897;51.126;5.868;2023-12-28T13:37:06;22.66;42.75
66962;HTU21D;53897;51.126;5.868;2023-12-28T13:39:32;22.65;42.75
66962;HTU21D;53897;51.126;5.868;2023-12-28T13:42:05;22.65;42.79
66962;HTU21D;53897;51.126;5.868;2023-12-28T13:44:33;22.64;42.87
66962;HTU21D;53897;51.126;5.868;2023-12-28T13:46:59;22.62;42.93
66962;HTU21D;53897;51.126;5.868;2023-12-28T13:49:25;22.62;43.00
66962;HTU21D;53897;51.126;5.868;2023-12-28T13:51:51;22.63;43.03
66962;HTU21D;53897;51.126;5.868;2023-12-28T13:54:17;22.63;43.03
66962;HTU21D;53897;51.126;5.868;2023-12-28T13:56:45;22.64;43.03
66962;HTU21D;53897;51.126;5.868;2023-12-28T13:59:11;22.63;42.99
66962;HTU21D;53897;51.126;5.868;2023-12-28T14:01:38;22.64;42.96
66962;HTU21D;53897;51.126;5.868;2023-12-28T14:04:04;22.64;42.91
66962;HTU21D;53897;51.126;5.868;2023-12-28T14:06:30;22.63;42.88
66962;HTU21D;53897;51.126;5.868;2023-12-28T14:08:56;22.63;42.84
66962;HTU21D;53897;51.126;5.868;2023-12-28T14:11:23;22.62;42.82
66962;HTU21D;53897;51.126;5.868;2023-12-28T14:13:49;22.62;42.81
66962;HTU21D;53897;51.126;5.868;2023-12-28T14:16:15;22.61;42.79
66962;HTU21D;53897;51.126;5.868;2023-12-28T14:18:40;22.60;42.77
66962;HTU21D;53897;51.126;5.868;2023-12-28T14:21:11;22.60;42.88
66962;HTU21D;53897;51.126;5.868;2023-12-28T14:23:39;22.58;43.04
66962;HTU21D;53897;51.126;5.868;2023-12-28T14:26:15;22.58;43.27
66962;HTU21D;53897;51.126;5.868;2023-12-28T14:28:44;22.58;43.35
66962;HTU21D;53897;51.126;5.868;2023-12-28T14:31:10;22.58;43.34
66962;HTU21D;53897;51.126;5.868;2023-12-28T14:33:37;22.60;43.35
66962;HTU21D;53897;51.126;5.868;2023-12-28T14:36:55;22.61;43.43
66962;HTU21D;53897;51.126;5.868;2023-12-28T14:39:07;22.58;43.53
66962;HTU21D;53897;51.126;5.868;2023-12-28T14:41:34;22.60;43.56
66962;HTU21D;53897;51.126;5.868;2023-12-28T14:44:00;22.58;43.64
66962;HTU21D;53897;51.126;5.868;2023-12-28T14:46:26;22.57;43.72
66962;HTU21D;53897;51.126;5.868;2023-12-28T14:48:53;22.57;43.78
66962;HTU21D;53897;51.126;5.868;2023-12-28T14:51:19;22.57;43.77
66962;HTU21D;53897;51.126;5.868;2023-12-28T14:53:45;22.56;43.74
66962;HTU21D;53897;51.126;5.868;2023-12-28T14:56:11;22.56;43.71
66962;HTU21D;53897;51.126;5.868;2023-12-28T14:58:41;22.57;43.67
66962;HTU21D;53897;51.126;5.868;2023-12-28T15:01:11;22.57;43.65
66962;HTU21D;53897;51.126;5.868;2023-12-28T15:03:37;22.57;43.67
66962;HTU21D;53897;51.126;5.868;2023-12-28T15:06:06;22.57;43.72
66962;HTU21D;53897;51.126;5.868;2023-12-28T15:08:32;22.58;43.78
66962;HTU21D;53897;51.126;5.868;2023-12-28T15:10:58;22.56;43.88
66962;HTU21D;53897;51.126;5.868;2023-12-28T15:13:26;22.57;43.88
66962;HTU21D;53897;51.126;5.868;2023-12-28T15:15:52;22.60;43.90
66962;HTU21D;53897;51.126;5.868;2023-12-28T15:18:18;22.61;43.90
66962;HTU21D;53897;51.126;5.868;2023-12-28T15:20:46;22.58;43.88
66962;HTU21D;53897;51.126;5.868;2023-12-28T15:23:12;22.62;43.82